sensor_id;sensor_type;location;lat;lon;timestamp;P1;durP1;ratioP1;P2;durP2;ratioP2
13485;SDS011;6815;59.336;17.998;2023-11-19T00:00:46;2.03;;;1.50;;
13485;SDS011;6815;59.336;17.998;2023-11-19T00:03:12;2.20;;;1.47;;
13485;SDS011;6815;59.336;17.998;2023-11-19T00:05:38;1.83;;;1.40;;
13485;SDS011;6815;59.336;17.998;2023-11-19T00:08:03;2.50;;;1.83;;
13485;SDS011;6815;59.336;17.998;2023-11-19T00:10:29;1.57;;;1.40;;
13485;SDS011;6815;59.336;17.998;2023-11-19T00:12:55;2.03;;;1.57;;
13485;SDS011;6815;59.336;17.998;2023-11-19T00:15:21;1.80;;;1.40;;
13485;SDS011;6815;59.336;17.998;2023-11-19T00:17:49;1.87;;;1.60;;
13485;SDS011;6815;59.336;17.998;2023-11-19T00:20:15;1.83;;;1.70;;
13485;SDS011;6815;59.336;17.998;2023-11-19T00:22:41;2.10;;;1.20;;
13485;SDS011;6815;59.336;17.998;2023-11-19T00:25:07;1.80;;;1.50;;
13485;SDS011;6815;59.336;17.998;2023-11-19T00:27:32;1.60;;;1.30;;
13485;SDS011;6815;59.336;17.998;2023-11-19T00:29:58;1.50;;;1.37;;
13485;SDS011;6815;59.336;17.998;2023-11-19T00:32:23;1.77;;;1.40;;
13485;SDS011;6815;59.336;17.998;2023-11-19T00:34:48;1.70;;;1.60;;
13485;SDS011;6815;59.336;17.998;2023-11-19T00:37:14;1.43;;;1.20;;
13485;SDS011;6815;59.336;17.998;2023-11-19T00:39:40;2.00;;;1.50;;
13485;SDS011;6815;59.336;17.998;2023-11-19T00:42:05;2.73;;;1.50;;
13485;SDS011;6815;59.336;17.998;2023-11-19T00:44:31;2.87;;;1.50;;
13485;SDS011;6815;59.336;17.998;2023-11-19T00:46:56;1.57;;;1.47;;
13485;SDS011;6815;59.336;17.998;2023-11-19T00:49:21;1.40;;;1.30;;
13485;SDS011;6815;59.336;17.998;2023-11-19T00:51:46;2.50;;;1.33;;
13485;SDS011;6815;59.336;17.998;2023-11-19T00:54:12;1.87;;;1.60;;
13485;SDS011;6815;59.336;17.998;2023-11-19T00:56:37;2.13;;;1.50;;
13485;SDS011;6815;59.336;17.998;2023-11-19T00:59:02;1.57;;;1.43;;
13485;SDS011;6815;59.336;17.998;2023-11-19T01:01:28;1.60;;;1.40;;
13485;SDS011;6815;59.336;17.998;2023-11-19T01:03:54;1.70;;;1.60;;
13485;SDS011;6815;59.336;17.998;2023-11-19T01:06:29;1.97;;;1.13;;
13485;SDS011;6815;59.336;17.998;2023-11-19T01:08:55;1.40;;;1.30;;
13485;SDS011;6815;59.336;17.998;2023-11-19T01:11:22;2.37;;;1.80;;
13485;SDS011;6815;59.336;17.998;2023-11-19T01:13:47;2.13;;;1.77;;
13485;SDS011;6815;59.336;17.998;2023-11-19T01:16:13;1.47;;;1.37;;
13485;SDS011;6815;59.336;17.998;2023-11-19T01:18:38;1.87;;;1.63;;
13485;SDS011;6815;59.336;17.998;2023-11-19T01:21:04;2.37;;;1.70;;
13485;SDS011;6815;59.336;17.998;2023-11-19T01:23:29;1.40;;;1.30;;
13485;SDS011;6815;59.336;17.998;2023-11-19T01:25:54;1.97;;;1.63;;
13485;SDS011;6815;59.336;17.998;2023-11-19T01:28:19;1.80;;;1.70;;
13485;SDS011;6815;59.336;17.998;2023-11-19T01:30:45;3.10;;;1.50;;
13485;SDS011;6815;59.336;17.998;2023-11-19T01:33:10;2.50;;;1.57;;
13485;SDS011;6815;59.336;17.998;2023-11-19T01:35:35;1.90;;;1.70;;
13485;SDS011;6815;59.336;17.998;2023-11-19T01:38:00;1.87;;;1.43;;
13485;SDS011;6815;59.336;17.998;2023-11-19T01:40:26;2.40;;;1.40;;
13485;SDS011;6815;59.336;17.998;2023-11-19T01:42:51;1.43;;;1.33;;
13485;SDS011;6815;59.336;17.998;2023-11-19T01:45:26;1.77;;;1.40;;
13485;SDS011;6815;59.336;17.998;2023-11-19T01:47:52;1.70;;;1.60;;
13485;SDS011;6815;59.336;17.998;2023-11-19T01:50:18;1.50;;;1.40;;
13485;SDS011;6815;59.336;17.998;2023-11-19T01:52:44;3.37;;;1.63;;
13485;SDS011;6815;59.336;17.998;2023-11-19T01:55:09;2.40;;;1.73;;
13485;SDS011;6815;59.336;17.998;2023-11-19T01:57:35;2.00;;;1.70;;
13485;SDS011;6815;59.336;17.998;2023-11-19T02:00:02;2.00;;;1.63;;
13485;SDS011;6815;59.336;17.998;2023-11-19T02:02:28;2.63;;;1.50;;
13485;SDS011;6815;59.336;17.998;2023-11-19T02:04:53;2.90;;;1.70;;
13485;SDS011;6815;59.336;17.998;2023-11-19T02:07:19;1.90;;;1.60;;
13485;SDS011;6815;59.336;17.998;2023-11-19T02:09:44;1.60;;;1.40;;
13485;SDS011;6815;59.336;17.998;2023-11-19T02:12:10;2.37;;;1.60;;
13485;SDS011;6815;59.336;17.998;2023-11-19T02:14:36;2.03;;;1.47;;
13485;SDS011;6815;59.336;17.998;2023-11-19T02:17:02;1.30;;;1.20;;
13485;SDS011;6815;59.336;17.998;2023-11-19T02:19:27;2.40;;;1.50;;
13485;SDS011;6815;59.336;17.998;2023-11-19T02:21:54;1.40;;;1.30;;
13485;SDS011;6815;59.336;17.998;2023-11-19T02:24:21;2.47;;;1.30;;
13485;SDS011;6815;59.336;17.998;2023-11-19T02:26:52;1.97;;;1.50;;
13485;SDS011;6815;59.336;17.998;2023-11-19T02:29:21;2.10;;;1.30;;
13485;SDS011;6815;59.336;17.998;2023-11-19T02:31:47;2.10;;;1.40;;
13485;SDS011;6815;59.336;17.998;2023-11-19T02:34:12;1.20;;;1.10;;
13485;SDS011;6815;59.336;17.998;2023-11-19T02:36:38;1.50;;;1.37;;
13485;SDS011;6815;59.336;17.998;2023-11-19T02:39:03;1.30;;;1.20;;
13485;SDS011;6815;59.336;17.998;2023-11-19T02:41:28;2.00;;;1.17;;
13485;SDS011;6815;59.336;17.998;2023-11-19T02:43:54;1.50;;;1.40;;
13485;SDS011;6815;59.336;17.998;2023-11-19T02:46:19;1.57;;;1.30;;
13485;SDS011;6815;59.336;17.998;2023-11-19T02:48:45;1.47;;;1.30;;
13485;SDS011;6815;59.336;17.998;2023-11-19T02:51:11;1.70;;;1.60;;
13485;SDS011;6815;59.336;17.998;2023-11-19T02:53:36;1.70;;;1.60;;
13485;SDS011;6815;59.336;17.998;2023-11-19T02:56:04;2.60;;;1.50;;
13485;SDS011;6815;59.336;17.998;2023-11-19T02:59:05;1.83;;;1.47;;
13485;SDS011;6815;59.336;17.998;2023-11-19T03:01:39;1.70;;;1.60;;
13485;SDS011;6815;59.336;17.998;2023-11-19T03:04:08;2.10;;;1.63;;
13485;SDS011;6815;59.336;17.998;2023-11-19T03:06:37;2.00;;;1.63;;
13485;SDS011;6815;59.336;17.998;2023-11-19T03:09:02;2.07;;;1.57;;
13485;SDS011;6815;59.336;17.998;2023-11-19T03:11:31;2.00;;;1.43;;
13485;SDS011;6815;59.336;17.998;2023-11-19T03:13:56;2.67;;;1.50;;
13485;SDS011;6815;59.336;17.998;2023-11-19T03:16:22;2.50;;;1.90;;
13485;SDS011;6815;59.336;17.998;2023-11-19T03:18:47;1.80;;;1.50;;
13485;SDS011;6815;59.336;17.998;2023-11-19T03:21:12;2.67;;;1.90;;
13485;SDS011;6815;59.336;17.998;2023-11-19T03:23:37;1.60;;;1.50;;
13485;SDS011;6815;59.336;17.998;2023-11-19T03:26:05;1.70;;;1.60;;
13485;SDS011;6815;59.336;17.998;2023-11-19T03:28:30;1.90;;;1.70;;
13485;SDS011;6815;59.336;17.998;2023-11-19T03:30:56;1.63;;;1.53;;
13485;SDS011;6815;59.336;17.998;2023-11-19T03:33:21;3.23;;;1.70;;
13485;SDS011;6815;59.336;17.998;2023-11-19T03:35:46;2.33;;;1.90;;
13485;SDS011;6815;59.336;17.998;2023-11-19T03:38:11;1.60;;;1.50;;
13485;SDS011;6815;59.336;17.998;2023-11-19T03:40:37;1.50;;;1.40;;
13485;SDS011;6815;59.336;17.998;2023-11-19T03:43:04;3.07;;;1.70;;
13485;SDS011;6815;59.336;17.998;2023-11-19T03:45:29;2.67;;;1.70;;
13485;SDS011;6815;59.336;17.998;2023-11-19T03:47:54;2.47;;;2.00;;
13485;SDS011;6815;59.336;17.998;2023-11-19T03:50:20;2.10;;;1.90;;
13485;SDS011;6815;59.336;17.998;2023-11-19T03:52:45;4.97;;;1.80;;
13485;SDS011;6815;59.336;17.998;2023-11-19T03:55:11;2.37;;;1.70;;
13485;SDS011;6815;59.336;17.998;2023-11-19T03:57:37;2.43;;;1.73;;
13485;SDS011;6815;59.336;17.998;2023-11-19T04:00:03;2.00;;;1.80;;
13485;SDS011;6815;59.336;17.998;2023-11-19T04:02:34;2.40;;;1.83;;
13485;SDS011;6815;59.336;17.998;2023-11-19T04:05:00;2.33;;;1.90;;
13485;SDS011;6815;59.336;17.998;2023-11-19T04:07:25;3.87;;;1.80;;
13485;SDS011;6815;59.336;17.998;2023-11-19T04:09:50;2.10;;;1.80;;
13485;SDS011;6815;59.336;17.998;2023-11-19T04:12:15;2.47;;;1.90;;
13485;SDS011;6815;59.336;17.998;2023-11-19T04:14:41;1.97;;;1.73;;
13485;SDS011;6815;59.336;17.998;2023-11-19T04:17:06;1.93;;;1.83;;
13485;SDS011;6815;59.336;17.998;2023-11-19T04:19:31;2.80;;;2.13;;
13485;SDS011;6815;59.336;17.998;2023-11-19T04:21:57;2.30;;;1.93;;
13485;SDS011;6815;59.336;17.998;2023-11-19T04:24:23;2.00;;;1.80;;
13485;SDS011;6815;59.336;17.998;2023-11-19T04:26:49;3.43;;;2.20;;
13485;SDS011;6815;59.336;17.998;2023-11-19T04:29:15;2.20;;;2.00;;
13485;SDS011;6815;59.336;17.998;2023-11-19T04:31:42;2.97;;;2.10;;
13485;SDS011;6815;59.336;17.998;2023-11-19T04:34:07;1.70;;;1.60;;
13485;SDS011;6815;59.336;17.998;2023-11-19T04:36:33;3.10;;;1.87;;
13485;SDS011;6815;59.336;17.998;2023-11-19T04:38:59;3.53;;;2.10;;
13485;SDS011;6815;59.336;17.998;2023-11-19T04:41:24;3.57;;;2.20;;
13485;SDS011;6815;59.336;17.998;2023-11-19T04:43:50;2.10;;;1.90;;
13485;SDS011;6815;59.336;17.998;2023-11-19T04:46:15;2.27;;;2.03;;
13485;SDS011;6815;59.336;17.998;2023-11-19T04:48:40;2.07;;;1.87;;
13485;SDS011;6815;59.336;17.998;2023-11-19T04:51:06;2.30;;;2.03;;
13485;SDS011;6815;59.336;17.998;2023-11-19T04:53:31;2.90;;;2.03;;
13485;SDS011;6815;59.336;17.998;2023-11-19T04:55:56;2.63;;;1.93;;
13485;SDS011;6815;59.336;17.998;2023-11-19T04:58:22;2.20;;;1.97;;
13485;SDS011;6815;59.336;17.998;2023-11-19T05:00:47;3.67;;;2.00;;
13485;SDS011;6815;59.336;17.998;2023-11-19T05:03:12;3.23;;;2.10;;
13485;SDS011;6815;59.336;17.998;2023-11-19T05:05:38;2.33;;;2.10;;
13485;SDS011;6815;59.336;17.998;2023-11-19T05:08:03;3.67;;;2.13;;
13485;SDS011;6815;59.336;17.998;2023-11-19T05:10:28;3.60;;;2.60;;
13485;SDS011;6815;59.336;17.998;2023-11-19T05:12:53;2.77;;;2.10;;
13485;SDS011;6815;59.336;17.998;2023-11-19T05:15:21;2.20;;;2.00;;
13485;SDS011;6815;59.336;17.998;2023-11-19T05:17:46;4.33;;;2.50;;
13485;SDS011;6815;59.336;17.998;2023-11-19T05:20:11;3.83;;;2.07;;
13485;SDS011;6815;59.336;17.998;2023-11-19T05:22:42;2.30;;;2.10;;
13485;SDS011;6815;59.336;17.998;2023-11-19T05:25:07;2.73;;;2.33;;
13485;SDS011;6815;59.336;17.998;2023-11-19T05:27:33;2.20;;;2.00;;
13485;SDS011;6815;59.336;17.998;2023-11-19T05:29:59;2.57;;;2.37;;
13485;SDS011;6815;59.336;17.998;2023-11-19T05:32:24;3.20;;;2.40;;
13485;SDS011;6815;59.336;17.998;2023-11-19T05:34:49;2.80;;;2.13;;
13485;SDS011;6815;59.336;17.998;2023-11-19T05:37:14;2.70;;;2.20;;
13485;SDS011;6815;59.336;17.998;2023-11-19T05:39:39;2.93;;;2.00;;
13485;SDS011;6815;59.336;17.998;2023-11-19T05:42:05;3.67;;;2.30;;
13485;SDS011;6815;59.336;17.998;2023-11-19T05:44:30;3.40;;;2.40;;
13485;SDS011;6815;59.336;17.998;2023-11-19T05:46:56;2.37;;;2.00;;
13485;SDS011;6815;59.336;17.998;2023-11-19T05:49:21;2.37;;;2.17;;
13485;SDS011;6815;59.336;17.998;2023-11-19T05:51:46;2.87;;;2.57;;
13485;SDS011;6815;59.336;17.998;2023-11-19T05:54:11;2.30;;;2.10;;
13485;SDS011;6815;59.336;17.998;2023-11-19T05:56:38;2.87;;;2.23;;
13485;SDS011;6815;59.336;17.998;2023-11-19T05:59:03;3.03;;;2.30;;
13485;SDS011;6815;59.336;17.998;2023-11-19T06:01:33;2.43;;;2.20;;
13485;SDS011;6815;59.336;17.998;2023-11-19T06:03:59;4.27;;;2.30;;
13485;SDS011;6815;59.336;17.998;2023-11-19T06:06:25;3.47;;;2.33;;
13485;SDS011;6815;59.336;17.998;2023-11-19T06:08:51;3.13;;;2.53;;
13485;SDS011;6815;59.336;17.998;2023-11-19T06:11:16;3.63;;;2.50;;
13485;SDS011;6815;59.336;17.998;2023-11-19T06:13:44;2.90;;;2.57;;
13485;SDS011;6815;59.336;17.998;2023-11-19T06:16:09;4.47;;;2.30;;
13485;SDS011;6815;59.336;17.998;2023-11-19T06:18:36;2.60;;;2.00;;
13485;SDS011;6815;59.336;17.998;2023-11-19T06:21:01;3.37;;;2.60;;
13485;SDS011;6815;59.336;17.998;2023-11-19T06:23:26;2.90;;;2.30;;
13485;SDS011;6815;59.336;17.998;2023-11-19T06:25:51;2.70;;;2.10;;
13485;SDS011;6815;59.336;17.998;2023-11-19T06:28:17;2.60;;;2.40;;
13485;SDS011;6815;59.336;17.998;2023-11-19T06:30:42;2.83;;;2.37;;
13485;SDS011;6815;59.336;17.998;2023-11-19T06:33:08;3.27;;;2.33;;
13485;SDS011;6815;59.336;17.998;2023-11-19T06:35:33;4.27;;;2.50;;
13485;SDS011;6815;59.336;17.998;2023-11-19T06:38:04;2.37;;;2.00;;
13485;SDS011;6815;59.336;17.998;2023-11-19T06:40:29;2.30;;;2.07;;
13485;SDS011;6815;59.336;17.998;2023-11-19T06:42:55;3.87;;;2.57;;
13485;SDS011;6815;59.336;17.998;2023-11-19T06:45:21;4.00;;;2.20;;
13485;SDS011;6815;59.336;17.998;2023-11-19T06:47:46;3.00;;;2.30;;
13485;SDS011;6815;59.336;17.998;2023-11-19T06:50:11;3.47;;;2.60;;
13485;SDS011;6815;59.336;17.998;2023-11-19T06:52:37;4.07;;;2.57;;
13485;SDS011;6815;59.336;17.998;2023-11-19T06:55:03;4.40;;;2.17;;
13485;SDS011;6815;59.336;17.998;2023-11-19T06:57:28;4.00;;;2.47;;
13485;SDS011;6815;59.336;17.998;2023-11-19T06:59:54;3.73;;;2.67;;
13485;SDS011;6815;59.336;17.998;2023-11-19T07:02:19;2.67;;;2.27;;
13485;SDS011;6815;59.336;17.998;2023-11-19T07:04:45;2.80;;;2.40;;
13485;SDS011;6815;59.336;17.998;2023-11-19T07:07:10;2.90;;;2.30;;
13485;SDS011;6815;59.336;17.998;2023-11-19T07:09:35;3.70;;;2.37;;
13485;SDS011;6815;59.336;17.998;2023-11-19T07:12:00;4.13;;;2.87;;
13485;SDS011;6815;59.336;17.998;2023-11-19T07:14:26;3.57;;;2.63;;
13485;SDS011;6815;59.336;17.998;2023-11-19T07:16:52;3.87;;;2.33;;
13485;SDS011;6815;59.336;17.998;2023-11-19T07:19:18;3.40;;;2.43;;
13485;SDS011;6815;59.336;17.998;2023-11-19T07:21:44;3.57;;;2.37;;
13485;SDS011;6815;59.336;17.998;2023-11-19T07:24:09;4.07;;;2.40;;
13485;SDS011;6815;59.336;17.998;2023-11-19T07:26:34;2.80;;;2.50;;
13485;SDS011;6815;59.336;17.998;2023-11-19T07:29:00;3.73;;;2.43;;
13485;SDS011;6815;59.336;17.998;2023-11-19T07:31:26;2.87;;;2.13;;
13485;SDS011;6815;59.336;17.998;2023-11-19T07:33:52;3.27;;;2.53;;
13485;SDS011;6815;59.336;17.998;2023-11-19T07:36:18;3.93;;;2.50;;
13485;SDS011;6815;59.336;17.998;2023-11-19T07:38:45;4.00;;;2.13;;
13485;SDS011;6815;59.336;17.998;2023-11-19T07:41:10;3.13;;;2.40;;
13485;SDS011;6815;59.336;17.998;2023-11-19T07:43:38;2.30;;;2.03;;
13485;SDS011;6815;59.336;17.998;2023-11-19T07:46:03;3.47;;;2.10;;
13485;SDS011;6815;59.336;17.998;2023-11-19T07:48:29;3.80;;;2.47;;
13485;SDS011;6815;59.336;17.998;2023-11-19T07:50:55;3.57;;;2.50;;
13485;SDS011;6815;59.336;17.998;2023-11-19T07:53:20;2.43;;;2.07;;
13485;SDS011;6815;59.336;17.998;2023-11-19T07:55:46;2.63;;;2.33;;
13485;SDS011;6815;59.336;17.998;2023-11-19T07:58:11;2.43;;;2.23;;
13485;SDS011;6815;59.336;17.998;2023-11-19T08:00:37;2.80;;;1.90;;
13485;SDS011;6815;59.336;17.998;2023-11-19T08:03:05;3.83;;;2.40;;
13485;SDS011;6815;59.336;17.998;2023-11-19T08:05:31;4.17;;;2.47;;
13485;SDS011;6815;59.336;17.998;2023-11-19T08:07:56;5.27;;;2.90;;
13485;SDS011;6815;59.336;17.998;2023-11-19T08:10:22;3.23;;;2.60;;
13485;SDS011;6815;59.336;17.998;2023-11-19T08:12:47;4.70;;;2.60;;
13485;SDS011;6815;59.336;17.998;2023-11-19T08:15:13;4.00;;;3.03;;
13485;SDS011;6815;59.336;17.998;2023-11-19T08:17:38;3.47;;;2.63;;
13485;SDS011;6815;59.336;17.998;2023-11-19T08:20:03;3.73;;;2.90;;
13485;SDS011;6815;59.336;17.998;2023-11-19T08:22:30;3.83;;;2.60;;
13485;SDS011;6815;59.336;17.998;2023-11-19T08:24:55;4.67;;;2.53;;
13485;SDS011;6815;59.336;17.998;2023-11-19T08:27:20;5.27;;;2.70;;
13485;SDS011;6815;59.336;17.998;2023-11-19T08:29:51;4.80;;;2.47;;
13485;SDS011;6815;59.336;17.998;2023-11-19T08:32:17;3.43;;;2.83;;
13485;SDS011;6815;59.336;17.998;2023-11-19T08:34:42;4.57;;;2.60;;
13485;SDS011;6815;59.336;17.998;2023-11-19T08:37:08;2.50;;;2.30;;
13485;SDS011;6815;59.336;17.998;2023-11-19T08:39:33;2.93;;;2.50;;
13485;SDS011;6815;59.336;17.998;2023-11-19T08:42:00;3.53;;;2.93;;
13485;SDS011;6815;59.336;17.998;2023-11-19T08:44:25;7.13;;;2.67;;
13485;SDS011;6815;59.336;17.998;2023-11-19T08:46:50;5.20;;;2.60;;
13485;SDS011;6815;59.336;17.998;2023-11-19T08:49:15;4.20;;;2.47;;
13485;SDS011;6815;59.336;17.998;2023-11-19T08:51:41;3.70;;;2.43;;
13485;SDS011;6815;59.336;17.998;2023-11-19T08:54:06;4.17;;;2.33;;
13485;SDS011;6815;59.336;17.998;2023-11-19T08:56:32;3.53;;;2.60;;
13485;SDS011;6815;59.336;17.998;2023-11-19T08:58:58;6.97;;;2.57;;
13485;SDS011;6815;59.336;17.998;2023-11-19T09:01:23;4.33;;;2.63;;
13485;SDS011;6815;59.336;17.998;2023-11-19T09:03:49;3.37;;;2.60;;
13485;SDS011;6815;59.336;17.998;2023-11-19T09:06:15;3.87;;;2.63;;
13485;SDS011;6815;59.336;17.998;2023-11-19T09:08:40;2.87;;;2.60;;
13485;SDS011;6815;59.336;17.998;2023-11-19T09:11:07;5.43;;;2.70;;
13485;SDS011;6815;59.336;17.998;2023-11-19T09:13:33;6.80;;;2.67;;
13485;SDS011;6815;59.336;17.998;2023-11-19T09:15:58;4.17;;;2.67;;
13485;SDS011;6815;59.336;17.998;2023-11-19T09:18:28;3.40;;;2.47;;
13485;SDS011;6815;59.336;17.998;2023-11-19T09:20:53;3.47;;;2.57;;
13485;SDS011;6815;59.336;17.998;2023-11-19T09:23:19;4.10;;;2.50;;
13485;SDS011;6815;59.336;17.998;2023-11-19T09:25:44;4.17;;;2.57;;
13485;SDS011;6815;59.336;17.998;2023-11-19T09:28:10;3.10;;;2.40;;
13485;SDS011;6815;59.336;17.998;2023-11-19T09:30:35;3.50;;;2.43;;
13485;SDS011;6815;59.336;17.998;2023-11-19T09:33:00;4.07;;;2.47;;
13485;SDS011;6815;59.336;17.998;2023-11-19T09:35:26;5.20;;;2.47;;
13485;SDS011;6815;59.336;17.998;2023-11-19T09:37:51;4.33;;;2.47;;
13485;SDS011;6815;59.336;17.998;2023-11-19T09:40:16;3.30;;;2.50;;
13485;SDS011;6815;59.336;17.998;2023-11-19T09:42:44;2.90;;;2.50;;
13485;SDS011;6815;59.336;17.998;2023-11-19T09:45:13;4.03;;;2.40;;
13485;SDS011;6815;59.336;17.998;2023-11-19T09:47:39;2.90;;;2.20;;
13485;SDS011;6815;59.336;17.998;2023-11-19T09:50:04;4.00;;;2.53;;
13485;SDS011;6815;59.336;17.998;2023-11-19T09:52:30;3.97;;;2.40;;
13485;SDS011;6815;59.336;17.998;2023-11-19T09:54:55;3.43;;;2.60;;
13485;SDS011;6815;59.336;17.998;2023-11-19T09:57:20;3.00;;;2.70;;
13485;SDS011;6815;59.336;17.998;2023-11-19T09:59:46;3.70;;;2.60;;
13485;SDS011;6815;59.336;17.998;2023-11-19T10:02:12;6.03;;;2.93;;
13485;SDS011;6815;59.336;17.998;2023-11-19T10:04:38;4.73;;;2.70;;
13485;SDS011;6815;59.336;17.998;2023-11-19T10:07:04;3.70;;;2.80;;
13485;SDS011;6815;59.336;17.998;2023-11-19T10:09:29;6.03;;;3.40;;
13485;SDS011;6815;59.336;17.998;2023-11-19T10:11:54;4.33;;;2.77;;
13485;SDS011;6815;59.336;17.998;2023-11-19T10:14:20;4.63;;;3.00;;
13485;SDS011;6815;59.336;17.998;2023-11-19T10:16:47;4.07;;;2.77;;
13485;SDS011;6815;59.336;17.998;2023-11-19T10:19:18;3.30;;;2.57;;
13485;SDS011;6815;59.336;17.998;2023-11-19T10:21:44;5.77;;;2.70;;
13485;SDS011;6815;59.336;17.998;2023-11-19T10:24:11;4.97;;;2.60;;
13485;SDS011;6815;59.336;17.998;2023-11-19T10:26:36;2.97;;;2.53;;
13485;SDS011;6815;59.336;17.998;2023-11-19T10:29:02;4.03;;;2.80;;
13485;SDS011;6815;59.336;17.998;2023-11-19T10:31:27;3.17;;;2.57;;
13485;SDS011;6815;59.336;17.998;2023-11-19T10:33:52;4.10;;;3.07;;
13485;SDS011;6815;59.336;17.998;2023-11-19T10:36:18;3.33;;;2.60;;
13485;SDS011;6815;59.336;17.998;2023-11-19T10:38:56;4.00;;;2.87;;
13485;SDS011;6815;59.336;17.998;2023-11-19T10:43:53;3.13;;;2.63;;
13485;SDS011;6815;59.336;17.998;2023-11-19T10:46:18;4.87;;;3.30;;
13485;SDS011;6815;59.336;17.998;2023-11-19T10:48:47;4.43;;;2.80;;
13485;SDS011;6815;59.336;17.998;2023-11-19T10:51:13;5.03;;;2.63;;
13485;SDS011;6815;59.336;17.998;2023-11-19T10:53:39;4.77;;;2.57;;
13485;SDS011;6815;59.336;17.998;2023-11-19T10:56:10;8.00;;;3.10;;
13485;SDS011;6815;59.336;17.998;2023-11-19T10:58:36;6.40;;;3.17;;
13485;SDS011;6815;59.336;17.998;2023-11-19T11:01:03;4.97;;;3.13;;
13485;SDS011;6815;59.336;17.998;2023-11-19T11:03:39;4.83;;;2.97;;
13485;SDS011;6815;59.336;17.998;2023-11-19T11:06:04;4.43;;;3.10;;
13485;SDS011;6815;59.336;17.998;2023-11-19T11:08:30;4.67;;;3.17;;
13485;SDS011;6815;59.336;17.998;2023-11-19T11:10:56;4.33;;;2.90;;
13485;SDS011;6815;59.336;17.998;2023-11-19T11:13:22;5.93;;;2.73;;
13485;SDS011;6815;59.336;17.998;2023-11-19T11:15:49;4.40;;;3.10;;
13485;SDS011;6815;59.336;17.998;2023-11-19T11:18:14;5.23;;;3.20;;
13485;SDS011;6815;59.336;17.998;2023-11-19T11:20:40;4.57;;;2.47;;
13485;SDS011;6815;59.336;17.998;2023-11-19T11:33:34;3.97;;;3.13;;
13485;SDS011;6815;59.336;17.998;2023-11-19T11:36:24;5.70;;;3.40;;
13485;SDS011;6815;59.336;17.998;2023-11-19T11:38:49;6.07;;;3.30;;
13485;SDS011;6815;59.336;17.998;2023-11-19T11:41:20;7.73;;;3.33;;
13485;SDS011;6815;59.336;17.998;2023-11-19T11:43:50;5.47;;;3.47;;
13485;SDS011;6815;59.336;17.998;2023-11-19T11:49:05;4.47;;;3.20;;
13485;SDS011;6815;59.336;17.998;2023-11-19T11:54:09;5.03;;;2.70;;
13485;SDS011;6815;59.336;17.998;2023-11-19T11:56:38;5.50;;;3.10;;
13485;SDS011;6815;59.336;17.998;2023-11-19T11:59:07;4.43;;;3.30;;
13485;SDS011;6815;59.336;17.998;2023-11-19T12:01:32;4.27;;;3.20;;
13485;SDS011;6815;59.336;17.998;2023-11-19T12:03:57;5.00;;;3.00;;
13485;SDS011;6815;59.336;17.998;2023-11-19T12:06:23;3.33;;;2.87;;
13485;SDS011;6815;59.336;17.998;2023-11-19T12:08:48;3.97;;;2.63;;
13485;SDS011;6815;59.336;17.998;2023-11-19T12:11:13;4.67;;;3.10;;
13485;SDS011;6815;59.336;17.998;2023-11-19T12:13:42;4.50;;;3.17;;
13485;SDS011;6815;59.336;17.998;2023-11-19T12:16:09;6.67;;;3.03;;
13485;SDS011;6815;59.336;17.998;2023-11-19T12:18:34;5.57;;;2.77;;
13485;SDS011;6815;59.336;17.998;2023-11-19T12:21:00;4.23;;;2.63;;
13485;SDS011;6815;59.336;17.998;2023-11-19T12:23:27;4.87;;;3.07;;
13485;SDS011;6815;59.336;17.998;2023-11-19T12:25:54;4.93;;;3.00;;
13485;SDS011;6815;59.336;17.998;2023-11-19T12:28:20;6.37;;;2.77;;
13485;SDS011;6815;59.336;17.998;2023-11-19T12:30:45;6.83;;;3.27;;
13485;SDS011;6815;59.336;17.998;2023-11-19T12:33:14;5.70;;;3.23;;
13485;SDS011;6815;59.336;17.998;2023-11-19T12:35:40;6.07;;;3.27;;
13485;SDS011;6815;59.336;17.998;2023-11-19T12:38:05;8.70;;;3.53;;
13485;SDS011;6815;59.336;17.998;2023-11-19T12:40:31;7.17;;;3.73;;
13485;SDS011;6815;59.336;17.998;2023-11-19T12:42:57;6.87;;;3.27;;
13485;SDS011;6815;59.336;17.998;2023-11-19T12:45:24;5.10;;;2.90;;
13485;SDS011;6815;59.336;17.998;2023-11-19T12:47:49;4.30;;;3.10;;
13485;SDS011;6815;59.336;17.998;2023-11-19T12:50:17;5.80;;;3.47;;
13485;SDS011;6815;59.336;17.998;2023-11-19T12:52:47;4.93;;;3.07;;
13485;SDS011;6815;59.336;17.998;2023-11-19T12:55:29;5.87;;;3.00;;
13485;SDS011;6815;59.336;17.998;2023-11-19T12:57:54;5.90;;;2.73;;
13485;SDS011;6815;59.336;17.998;2023-11-19T13:00:24;4.17;;;2.70;;
13485;SDS011;6815;59.336;17.998;2023-11-19T13:02:50;6.23;;;3.20;;
13485;SDS011;6815;59.336;17.998;2023-11-19T13:05:28;6.50;;;3.20;;
13485;SDS011;6815;59.336;17.998;2023-11-19T13:10:27;6.90;;;3.17;;
13485;SDS011;6815;59.336;17.998;2023-11-19T13:13:07;6.10;;;3.23;;
13485;SDS011;6815;59.336;17.998;2023-11-19T13:15:33;4.40;;;3.10;;
13485;SDS011;6815;59.336;17.998;2023-11-19T13:17:59;4.33;;;3.20;;
13485;SDS011;6815;59.336;17.998;2023-11-19T13:20:24;11.37;;;3.60;;
13485;SDS011;6815;59.336;17.998;2023-11-19T13:22:56;8.37;;;3.87;;
13485;SDS011;6815;59.336;17.998;2023-11-19T13:25:22;6.13;;;3.23;;
13485;SDS011;6815;59.336;17.998;2023-11-19T13:27:47;3.93;;;2.97;;
13485;SDS011;6815;59.336;17.998;2023-11-19T13:30:13;6.40;;;3.00;;
13485;SDS011;6815;59.336;17.998;2023-11-19T13:32:38;5.57;;;3.23;;
13485;SDS011;6815;59.336;17.998;2023-11-19T13:35:04;3.43;;;3.10;;
13485;SDS011;6815;59.336;17.998;2023-11-19T13:37:29;3.73;;;2.90;;
13485;SDS011;6815;59.336;17.998;2023-11-19T13:39:55;3.73;;;3.00;;
13485;SDS011;6815;59.336;17.998;2023-11-19T13:42:20;4.07;;;2.70;;
13485;SDS011;6815;59.336;17.998;2023-11-19T13:44:46;6.90;;;2.63;;
13485;SDS011;6815;59.336;17.998;2023-11-19T13:47:11;5.80;;;3.00;;
13485;SDS011;6815;59.336;17.998;2023-11-19T13:49:38;5.83;;;2.90;;
13485;SDS011;6815;59.336;17.998;2023-11-19T13:52:03;5.93;;;3.10;;
13485;SDS011;6815;59.336;17.998;2023-11-19T13:54:28;7.80;;;3.03;;
13485;SDS011;6815;59.336;17.998;2023-11-19T13:56:57;4.20;;;3.00;;
13485;SDS011;6815;59.336;17.998;2023-11-19T13:59:23;7.17;;;3.63;;
13485;SDS011;6815;59.336;17.998;2023-11-19T14:01:48;5.20;;;3.00;;
13485;SDS011;6815;59.336;17.998;2023-11-19T14:04:14;5.40;;;3.10;;
13485;SDS011;6815;59.336;17.998;2023-11-19T14:06:39;4.20;;;3.30;;
13485;SDS011;6815;59.336;17.998;2023-11-19T14:09:06;5.93;;;3.23;;
13485;SDS011;6815;59.336;17.998;2023-11-19T14:11:31;5.13;;;3.47;;
13485;SDS011;6815;59.336;17.998;2023-11-19T14:13:57;6.37;;;3.73;;
13485;SDS011;6815;59.336;17.998;2023-11-19T14:16:26;5.13;;;3.60;;
13485;SDS011;6815;59.336;17.998;2023-11-19T14:18:51;5.40;;;3.50;;
13485;SDS011;6815;59.336;17.998;2023-11-19T14:21:16;5.67;;;3.43;;
13485;SDS011;6815;59.336;17.998;2023-11-19T14:23:41;8.33;;;3.30;;
13485;SDS011;6815;59.336;17.998;2023-11-19T14:26:07;5.50;;;2.70;;
13485;SDS011;6815;59.336;17.998;2023-11-19T14:28:32;3.97;;;3.20;;
13485;SDS011;6815;59.336;17.998;2023-11-19T14:30:57;5.10;;;3.03;;
13485;SDS011;6815;59.336;17.998;2023-11-19T14:33:23;4.13;;;2.93;;
13485;SDS011;6815;59.336;17.998;2023-11-19T14:35:48;9.33;;;3.47;;
13485;SDS011;6815;59.336;17.998;2023-11-19T14:38:13;3.93;;;2.70;;
13485;SDS011;6815;59.336;17.998;2023-11-19T14:40:39;5.83;;;3.13;;
13485;SDS011;6815;59.336;17.998;2023-11-19T14:43:04;6.70;;;3.00;;
13485;SDS011;6815;59.336;17.998;2023-11-19T14:45:29;3.83;;;2.53;;
13485;SDS011;6815;59.336;17.998;2023-11-19T14:47:55;4.03;;;2.60;;
13485;SDS011;6815;59.336;17.998;2023-11-19T14:50:20;3.37;;;2.50;;
13485;SDS011;6815;59.336;17.998;2023-11-19T14:52:45;4.53;;;2.80;;
13485;SDS011;6815;59.336;17.998;2023-11-19T14:55:10;5.30;;;2.73;;
13485;SDS011;6815;59.336;17.998;2023-11-19T14:57:36;4.37;;;3.10;;
13485;SDS011;6815;59.336;17.998;2023-11-19T15:00:04;4.63;;;2.70;;
13485;SDS011;6815;59.336;17.998;2023-11-19T15:02:37;4.63;;;2.57;;